Time;durP1;ratioP1;P1;durP2;ratioP2;P2;SDS_P1;SDS_P2;PMS_P1;PMS_P2;Temp;Humidity;BMP_temperature;BMP_pressure;BME280_temperature;BME280_humidity;BME280_pressure;Samples;Min_cycle;Max_cycle;Signal;HPM_P1;HPM_P2
2023/06/17 00:02:38;;;;;;;0.63;0.50;;;;;;;22.90;36.03;101022.38;5270811;28;20062;-80
2023/06/17 00:05:28;;;;;;;1.20;0.98;;;;;;;22.84;36.10;101025.53;5283467;28;20070;-79
2023/06/17 00:08:19;;;;;;;0.85;0.85;;;;;;;22.76;36.25;101023.41;5283318;28;20276;-79
2023/06/17 00:11:10;;;;;;;0.40;0.40;;;;;;;22.72;36.35;101023.75;5281855;28;20028;-79
2023/06/17 00:14:01;;;;;;;0.80;0.80;;;;;;;22.67;36.70;101020.56;5251350;28;20024;-80
2023/06/17 00:16:52;;;;;;;0.75;0.75;;;;;;;22.62;36.47;101020.91;5267010;28;20047;-81
2023/06/17 00:19:43;;;;;;;0.90;0.80;;;;;;;22.52;36.87;101018.03;5280335;28;20032;-80
2023/06/17 00:22:35;;;;;;;13.52;0.85;;;;;;;22.50;36.32;101021.78;5280195;28;20061;-80
2023/06/17 00:25:26;;;;;;;2.65;0.50;;;;;;;22.47;36.75;101012.19;5279017;28;20043;-79
2023/06/17 00:28:16;;;;;;;0.85;0.77;;;;;;;22.41;36.74;101016.16;5261722;28;20589;-78
2023/06/17 00:31:07;;;;;;;0.60;0.60;;;;;;;22.37;37.12;101019.13;5245235;28;20043;-80
2023/06/17 00:33:58;;;;;;;0.32;0.32;;;;;;;22.31;37.38;101007.91;5274478;28;20092;-79
2023/06/17 00:36:49;;;;;;;0.40;0.40;;;;;;;22.26;37.40;101011.88;5262417;28;20054;-79
2023/06/17 00:39:40;;;;;;;0.47;0.47;;;;;;;22.23;37.06;101012.97;5275884;28;20055;-80
2023/06/17 00:42:30;;;;;;;0.45;0.45;;;;;;;22.14;37.39;101009.16;5261512;28;20039;-79
2023/06/17 00:45:21;;;;;;;3.05;0.95;;;;;;;22.14;37.60;101002.94;5260431;28;20068;-79
2023/06/17 00:48:13;;;;;;;0.20;0.20;;;;;;;22.07;37.45;101002.50;5259699;28;20028;-79
2023/06/17 00:51:04;;;;;;;0.80;0.73;;;;;;;22.01;38.15;101011.84;5260209;28;20032;-78
2023/06/17 00:53:56;;;;;;;0.38;0.38;;;;;;;21.98;37.86;101006.69;5274534;28;20035;-79
2023/06/17 00:56:46;;;;;;;1.02;0.63;;;;;;;21.89;37.41;101007.34;5256515;28;20236;-79
2023/06/17 00:59:38;;;;;;;0.47;0.47;;;;;;;21.84;37.89;101006.81;5247732;28;20024;-81
2023/06/17 01:02:29;;;;;;;0.60;0.60;;;;;;;21.80;37.94;101005.31;5273889;28;20042;-79
2023/06/17 01:05:20;;;;;;;0.93;0.70;;;;;;;21.74;37.61;101008.44;5258515;28;20040;-77
2023/06/17 01:08:33;;;;;;;0.73;0.73;;;;;;;21.68;38.12;101002.56;5259742;28;20036;-81
2023/06/17 01:11:25;;;;;;;2.80;0.95;;;;;;;21.69;38.13;101004.25;5275397;28;20035;-79
2023/06/17 01:14:17;;;;;;;0.57;0.40;;;;;;;21.64;38.50;101001.06;5276153;28;20341;-79
2023/06/17 01:17:12;;;;;;;0.65;0.65;;;;;;;21.61;38.28;100997.75;5265543;28;20056;-79
2023/06/17 01:20:05;;;;;;;0.45;0.45;;;;;;;21.55;38.64;100998.97;5262432;28;20027;-77
2023/06/17 01:22:57;;;;;;;0.65;0.65;;;;;;;21.47;38.23;100990.66;5279276;28;20027;-77
2023/06/17 01:25:49;;;;;;;0.88;0.88;;;;;;;21.44;38.69;100998.88;5284480;28;20030;-78
2023/06/17 01:28:40;;;;;;;0.70;0.70;;;;;;;21.35;38.67;101003.91;5272473;28;20030;-77
2023/06/17 01:31:31;;;;;;;3.30;1.65;;;;;;;21.31;38.67;100999.72;5270938;28;20022;-78
2023/06/17 01:34:31;;;;;;;3.47;1.00;;;;;;;21.31;39.11;101004.22;5286614;28;20019;-77
2023/06/17 01:37:42;;;;;;;1.15;1.00;;;;;;;21.28;38.89;101002.56;5303672;28;20026;-79
2023/06/17 01:40:34;;;;;;;0.52;0.52;;;;;;;21.20;38.68;100997.78;5301499;28;20020;-79
2023/06/17 01:43:27;;;;;;;0.60;0.50;;;;;;;21.12;39.72;101001.91;5282972;28;20019;-79
2023/06/17 01:46:18;;;;;;;0.63;0.63;;;;;;;21.10;39.27;100996.69;5240865;28;20620;-79
2023/06/17 01:49:09;;;;;;;0.30;0.30;;;;;;;21.04;39.76;100999.78;5273791;28;20124;-78
2023/06/17 01:52:00;;;;;;;0.75;0.75;;;;;;;21.02;39.32;101002.56;5277531;28;20033;-78
2023/06/17 01:54:51;;;;;;;0.50;0.50;;;;;;;20.98;39.13;101001.03;5278279;28;20043;-77
2023/06/17 01:57:42;;;;;;;0.50;0.50;;;;;;;20.92;39.45;100998.78;5250406;28;20047;-79
2023/06/17 02:00:32;;;;;;;0.65;0.60;;;;;;;20.91;39.59;100997.91;5265052;28;20032;-79
2023/06/17 02:03:23;;;;;;;1.17;0.85;;;;;;;20.86;39.59;101004.53;5254278;28;20020;-79
2023/06/17 02:06:14;;;;;;;1.45;1.35;;;;;;;20.81;39.73;101001.28;5262943;28;20046;-78
2023/06/17 02:09:06;;;;;;;0.73;0.63;;;;;;;20.78;39.81;100994.34;5276800;28;20031;-79
2023/06/17 02:11:57;;;;;;;0.73;0.65;;;;;;;20.72;39.77;100998.25;5252258;28;20036;-79
2023/06/17 02:14:48;;;;;;;1.35;1.25;;;;;;;20.67;39.84;100994.16;5255714;28;20028;-79
2023/06/17 02:17:39;;;;;;;0.90;0.90;;;;;;;20.58;39.57;100995.63;5258761;28;20066;-78
2023/06/17 02:20:29;;;;;;;0.63;0.63;;;;;;;20.55;40.25;100990.50;5246042;28;20119;-78
2023/06/17 02:23:20;;;;;;;0.45;0.45;;;;;;;20.50;40.83;100992.59;5258802;28;20028;-79
2023/06/17 02:26:11;;;;;;;2.20;0.68;;;;;;;20.48;40.05;100991.84;5254076;28;20024;-78
2023/06/17 02:29:02;;;;;;;0.43;0.43;;;;;;;20.42;40.16;101001.97;5251602;28;20032;-79
2023/06/17 02:31:53;;;;;;;0.85;0.60;;;;;;;20.42;40.37;100995.75;5259573;28;20057;-78
2023/06/17 02:34:48;;;;;;;1.23;0.52;;;;;;;20.36;40.33;100991.69;5253458;28;20042;-78
2023/06/17 02:37:38;;;;;;;1.73;1.40;;;;;;;20.32;40.60;100989.31;5262498;28;20075;-79
2023/06/17 02:40:29;;;;;;;1.35;1.25;;;;;;;20.26;40.52;100990.56;5254608;28;20078;-77
2023/06/17 02:43:20;;;;;;;2.30;1.10;;;;;;;20.24;40.52;100988.00;5271284;28;20081;-79
2023/06/17 02:46:11;;;;;;;0.90;0.85;;;;;;;20.23;41.23;100985.44;5239368;28;20040;-79
2023/06/17 02:49:02;;;;;;;1.35;0.93;;;;;;;20.20;40.97;100974.97;5272256;28;20027;-79
2023/06/17 02:51:53;;;;;;;8.98;1.45;;;;;;;20.18;41.00;100980.38;5271310;28;20516;-78
2023/06/17 02:54:43;;;;;;;0.88;0.88;;;;;;;20.09;41.06;100979.19;5268945;28;20130;-78
2023/06/17 02:57:35;;;;;;;1.65;1.25;;;;;;;20.03;41.11;100987.56;5253150;28;20043;-78
2023/06/17 03:00:29;;;;;;;4.70;0.88;;;;;;;20.04;41.61;100975.94;5264922;28;20630;-78
2023/06/17 03:03:33;;;;;;;0.95;0.95;;;;;;;20.01;41.38;100977.94;5279878;28;20734;-78
2023/06/17 03:06:24;;;;;;;0.98;0.93;;;;;;;19.96;41.83;100973.75;5265587;28;20130;-79
2023/06/17 03:09:15;;;;;;;0.60;0.60;;;;;;;19.90;41.50;100979.47;5249711;28;20023;-78
2023/06/17 03:12:06;;;;;;;1.88;0.77;;;;;;;19.89;41.83;100980.44;5263464;28;20035;-78
2023/06/17 03:14:57;;;;;;;1.45;1.35;;;;;;;19.85;41.56;100980.72;5260961;28;20036;-77
2023/06/17 03:17:47;;;;;;;0.40;0.40;;;;;;;19.83;41.89;100978.13;5269185;28;20521;-78
2023/06/17 03:20:42;;;;;;;0.88;0.80;;;;;;;19.77;42.08;100979.34;5276378;28;20120;-79
2023/06/17 03:23:33;;;;;;;0.50;0.50;;;;;;;19.76;42.40;100977.63;5242480;28;20028;-78
2023/06/17 03:26:25;;;;;;;1.95;1.25;;;;;;;19.72;42.01;100976.09;5256875;28;21431;-78
2023/06/17 03:29:15;;;;;;;1.77;1.67;;;;;;;19.71;42.21;100974.38;5259123;28;20032;-78
2023/06/17 03:32:07;;;;;;;4.53;1.13;;;;;;;19.67;42.05;100970.22;5266522;28;20040;-79
2023/06/17 03:34:57;;;;;;;0.70;0.70;;;;;;;19.64;42.48;100973.06;5275122;28;20142;-78
2023/06/17 03:37:49;;;;;;;2.40;1.38;;;;;;;19.63;42.59;100974.00;5248983;28;20066;-77
2023/06/17 03:40:39;;;;;;;0.40;0.40;;;;;;;19.57;42.59;100974.38;5277267;28;20035;-78
2023/06/17 03:43:30;;;;;;;0.65;0.65;;;;;;;19.55;42.69;100970.94;5264957;28;20032;-79
2023/06/17 03:46:21;;;;;;;2.33;1.30;;;;;;;19.52;42.83;100971.16;5245387;28;20042;-79
2023/06/17 03:49:12;;;;;;;1.23;1.13;;;;;;;19.47;42.59;100968.78;5263562;28;20626;-79
2023/06/17 03:52:03;;;;;;;2.08;1.50;;;;;;;19.42;43.25;100978.84;5279421;28;20043;-78
2023/06/17 03:54:54;;;;;;;0.35;0.35;;;;;;;19.37;42.87;100971.16;5273509;28;20246;-78
2023/06/17 03:57:45;;;;;;;0.68;0.68;;;;;;;19.36;43.00;100969.44;5253477;28;20036;-78
2023/06/17 04:00:36;;;;;;;2.22;1.10;;;;;;;19.35;42.84;100970.38;5255353;28;20733;-79
2023/06/17 04:03:27;;;;;;;10.82;3.17;;;;;;;19.33;43.34;100973.13;5249141;28;20031;-78
2023/06/17 04:06:18;;;;;;;1.55;1.45;;;;;;;19.37;43.39;100967.63;5240027;28;20035;-77
2023/06/17 04:09:09;;;;;;;1.95;1.40;;;;;;;19.31;43.42;100972.38;5276949;28;20047;-77
2023/06/17 04:12:02;;;;;;;6.07;2.85;;;;;;;19.25;43.34;100961.22;5279701;28;20089;-78
2023/06/17 04:14:53;;;;;;;1.80;1.70;;;;;;;19.25;42.90;100958.56;5265874;28;20047;-77
2023/06/17 04:17:43;;;;;;;14.60;3.17;;;;;;;19.23;43.23;100968.44;5256931;28;20356;-78
2023/06/17 04:20:37;;;;;;;1.05;0.88;;;;;;;19.22;44.49;100966.72;5251337;28;20035;-78
2023/06/17 04:23:28;;;;;;;12.38;2.53;;;;;;;19.15;43.88;100959.13;5259368;28;20020;-78
2023/06/17 04:26:19;;;;;;;2.83;2.00;;;;;;;19.12;44.15;100963.75;5278453;28;20130;-78
2023/06/17 04:29:10;;;;;;;1.40;1.27;;;;;;;19.09;43.87;100961.31;5265060;28;20064;-78
2023/06/17 04:32:02;;;;;;;0.50;0.50;;;;;;;19.12;43.86;100963.75;5261910;28;20043;-77
2023/06/17 04:34:53;;;;;;;0.63;0.63;;;;;;;19.09;43.99;100961.31;5260475;28;20024;-78
2023/06/17 04:37:53;;;;;;;1.25;1.15;;;;;;;19.10;44.03;100955.00;5261897;28;20048;-78
2023/06/17 04:40:43;;;;;;;1.38;0.93;;;;;;;19.09;44.16;100969.28;5274892;28;20044;-77
2023/06/17 04:43:36;;;;;;;0.75;0.73;;;;;;;19.07;43.94;100963.19;5253715;28;20271;-77
2023/06/17 04:46:27;;;;;;;3.47;1.42;;;;;;;19.03;43.69;100960.69;5256409;28;20599;-78
2023/06/17 04:49:18;;;;;;;3.90;1.65;;;;;;;19.02;45.57;100960.81;5239836;28;20118;-78
2023/06/17 04:52:09;;;;;;;3.50;3.20;;;;;;;19.04;44.19;100964.22;5250058;28;20047;-77
2023/06/17 04:55:00;;;;;;;0.50;0.50;;;;;;;19.04;44.24;100958.91;5263354;28;20034;-76
2023/06/17 04:57:51;;;;;;;1.15;1.15;;;;;;;19.01;45.86;100959.94;5268688;28;20035;-76
2023/06/17 05:00:41;;;;;;;1.13;1.00;;;;;;;19.07;45.28;100969.34;5253080;28;20048;-76
2023/06/17 05:03:32;;;;;;;1.42;1.33;;;;;;;18.92;46.26;100964.91;5266706;28;20066;-77
2023/06/17 05:06:23;;;;;;;2.60;1.23;;;;;;;18.99;44.78;100976.91;5267122;28;20043;-79
2023/06/17 05:09:14;;;;;;;0.47;0.47;;;;;;;19.00;44.59;100978.63;5249591;28;20039;-77
2023/06/17 05:12:05;;;;;;;0.73;0.73;;;;;;;18.99;44.30;100977.78;5265995;28;20035;-77
2023/06/17 05:14:56;;;;;;;0.47;0.40;;;;;;;19.03;44.46;100970.50;5239466;28;20113;-77
2023/06/17 05:17:47;;;;;;;2.00;1.13;;;;;;;19.05;44.19;100973.06;5254363;28;20035;-77
2023/06/17 05:20:37;;;;;;;0.55;0.55;;;;;;;19.06;44.45;100975.59;5245661;28;21015;-78
2023/06/17 05:23:28;;;;;;;0.50;0.50;;;;;;;19.07;44.35;100979.97;5253034;28;20094;-78
2023/06/17 05:26:19;;;;;;;6.68;2.55;;;;;;;19.08;44.33;100980.84;5252480;28;20130;-77
2023/06/17 05:29:10;;;;;;;0.65;0.65;;;;;;;19.05;45.55;100979.22;5253014;28;20842;-77
2023/06/17 05:32:01;;;;;;;1.55;1.33;;;;;;;19.13;45.33;100974.28;5252330;28;20044;-77
2023/06/17 05:34:52;;;;;;;0.57;0.57;;;;;;;19.08;44.40;100976.38;5271149;28;20027;-76
2023/06/17 05:37:42;;;;;;;1.45;1.35;;;;;;;19.01;44.88;100973.22;5249761;28;20361;-77
2023/06/17 05:40:33;;;;;;;2.13;1.63;;;;;;;19.00;44.34;100973.31;5258013;28;20059;-77
2023/06/17 05:43:27;;;;;;;1.65;1.10;;;;;;;19.11;44.21;100976.22;5272783;28;20028;-79
2023/06/17 05:46:18;;;;;;;0.82;0.82;;;;;;;19.21;43.49;100978.34;5260680;28;20040;-79
2023/06/17 05:49:09;;;;;;;0.63;0.63;;;;;;;19.20;43.56;100972.13;5261454;28;20043;-78
2023/06/17 05:52:00;;;;;;;1.00;0.95;;;;;;;19.24;43.62;100978.13;5258012;28;20723;-78
2023/06/17 05:54:50;;;;;;;0.40;0.40;;;;;;;19.27;43.61;100977.97;5262035;28;20529;-78
2023/06/17 05:57:41;;;;;;;0.30;0.30;;;;;;;19.27;43.74;100973.47;5264333;28;20032;-78
2023/06/17 06:00:32;;;;;;;1.55;1.30;;;;;;;19.33;43.77;100980.25;5256441;28;20058;-78
2023/06/17 06:03:23;;;;;;;0.70;0.70;;;;;;;19.34;44.09;100979.31;5254377;28;20639;-78
2023/06/17 06:06:13;;;;;;;0.35;0.35;;;;;;;19.36;44.07;100982.72;5273966;28;20127;-78
2023/06/17 06:09:04;;;;;;;2.47;0.80;;;;;;;19.26;44.43;100973.59;5272925;28;20466;-78
2023/06/17 06:11:55;;;;;;;4.78;1.45;;;;;;;19.40;43.79;100975.41;5247756;28;20051;-78
2023/06/17 06:14:46;;;;;;;0.90;0.90;;;;;;;19.42;43.78;100974.38;5249259;28;21095;-78
2023/06/17 06:17:36;;;;;;;0.70;0.70;;;;;;;19.46;43.29;100978.53;5261333;28;21208;-82
2023/06/17 06:20:28;;;;;;;1.58;0.90;;;;;;;19.45;44.30;100981.31;5276273;28;20492;-82
2023/06/17 06:23:19;;;;;;;1.00;0.95;;;;;;;19.50;43.79;100981.91;5265069;28;20031;-82
2023/06/17 06:26:10;;;;;;;0.50;0.50;;;;;;;19.56;43.98;100978.88;5274424;28;20059;-81
2023/06/17 06:29:01;;;;;;;0.50;0.50;;;;;;;19.64;43.43;100984.56;5247372;28;20111;-81
2023/06/17 06:31:51;;;;;;;0.65;0.65;;;;;;;19.65;43.56;100983.63;5260299;28;20082;-81
2023/06/17 06:34:45;;;;;;;1.02;0.85;;;;;;;19.56;44.84;100985.97;5258779;28;20028;-81
2023/06/17 06:37:36;;;;;;;;;;;;;;;19.63;44.15;100995.28;5260863;28;20300;-83
2023/06/17 06:40:26;;;;;;;1.10;1.02;;;;;;;19.62;44.01;100986.47;5266826;27;19926;-84
2023/06/17 06:43:17;;;;;;;0.80;0.80;;;;;;;19.73;44.15;100991.13;5264358;28;20130;-82
2023/06/17 06:46:08;;;;;;;1.02;0.80;;;;;;;19.76;44.31;100982.97;5263810;28;20054;-83
2023/06/17 06:48:59;;;;;;;0.25;0.25;;;;;;;19.85;44.08;100991.38;5265234;28;20051;-83
2023/06/17 06:51:50;;;;;;;2.72;0.75;;;;;;;19.86;44.66;100987.75;5261849;28;20856;-81
2023/06/17 06:54:41;;;;;;;1.00;1.00;;;;;;;19.97;44.10;100988.78;5261567;28;20034;-81
2023/06/17 06:57:31;;;;;;;0.80;0.75;;;;;;;19.94;44.10;100980.97;5273352;28;21314;-82
2023/06/17 07:00:22;;;;;;;0.77;0.43;;;;;;;20.01;44.39;100980.59;5265050;28;20020;-80
2023/06/17 07:03:13;;;;;;;1.05;0.93;;;;;;;20.08;44.00;100998.78;5285707;28;20050;-80
2023/06/17 07:06:04;;;;;;;0.70;0.60;;;;;;;20.11;43.67;100987.94;5269704;28;20051;-79
2023/06/17 07:08:55;;;;;;;0.43;0.43;;;;;;;20.13;43.99;100991.34;5286709;28;20030;-80
2023/06/17 07:11:45;;;;;;;1.13;0.70;;;;;;;20.25;43.40;100994.19;5297480;28;20032;-80
2023/06/17 07:14:36;;;;;;;1.23;0.85;;;;;;;20.30;44.63;100992.06;5286536;28;20103;-78
2023/06/17 07:17:27;;;;;;;3.53;1.52;;;;;;;20.33;44.37;101001.69;5259379;28;20055;-81
2023/06/17 07:20:17;;;;;;;1.00;1.00;;;;;;;20.42;44.09;100993.97;5268108;27;20039;-78
2023/06/17 07:23:08;;;;;;;0.98;0.90;;;;;;;20.43;44.02;101003.66;5277590;28;20212;-82
2023/06/17 07:25:59;;;;;;;1.17;1.05;;;;;;;20.51;43.49;101002.31;5257272;27;20035;-82
2023/06/17 07:28:50;;;;;;;2.95;0.82;;;;;;;20.60;43.12;100999.06;5251967;27;20027;-82
2023/06/17 07:31:41;;;;;;;0.40;0.40;;;;;;;20.53;45.14;101000.41;5275736;27;20024;-80
2023/06/17 07:34:31;;;;;;;0.85;0.82;;;;;;;20.71;43.81;101001.84;5273413;27;20044;-83
2023/06/17 07:37:23;;;;;;;1.08;1.05;;;;;;;20.76;43.64;100996.25;5271679;28;20036;-80
2023/06/17 07:40:13;;;;;;;0.73;0.73;;;;;;;20.65;46.14;100996.94;5270759;28;20109;-80
2023/06/17 07:43:04;;;;;;;0.60;0.60;;;;;;;20.79;45.06;100997.88;5272920;28;20563;-80
2023/06/17 07:45:56;;;;;;;5.55;1.30;;;;;;;20.89;44.37;100990.97;5270640;28;20045;-79
2023/06/17 07:48:46;;;;;;;0.55;0.55;;;;;;;20.88;46.16;100997.25;5262239;28;20031;-80
2023/06/17 07:51:37;;;;;;;1.40;1.30;;;;;;;21.02;44.63;100994.53;5252433;28;20032;-80
2023/06/17 07:54:28;;;;;;;0.52;0.52;;;;;;;21.06;44.21;100993.38;5259123;28;20623;-81
2023/06/17 07:57:19;;;;;;;0.50;0.50;;;;;;;21.09;44.79;100996.78;5272565;28;20119;-81
2023/06/17 08:00:12;;;;;;;0.28;0.28;;;;;;;21.15;44.27;100999.03;5273111;28;20028;-82
2023/06/17 08:03:03;;;;;;;1.33;1.23;;;;;;;21.16;45.58;100995.41;5255610;28;20028;-84
2023/06/17 08:05:54;;;;;;;1.05;1.05;;;;;;;21.10;45.36;100993.19;5239537;28;20051;-82
2023/06/17 08:08:45;;;;;;;0.63;0.63;;;;;;;21.16;44.81;100998.09;5261081;28;20265;-82
2023/06/17 08:11:36;;;;;;;0.50;0.50;;;;;;;21.35;43.37;100985.22;5260334;28;20294;-82
2023/06/17 08:14:27;;;;;;;0.75;0.75;;;;;;;21.37;42.74;100983.28;5262304;28;20123;-80
2023/06/17 08:17:18;;;;;;;0.93;0.77;;;;;;;21.40;43.70;100976.91;5247254;28;20059;-81
2023/06/17 08:20:09;;;;;;;0.50;0.50;;;;;;;21.36;43.69;100970.88;5279617;28;20046;-81
2023/06/17 08:23:00;;;;;;;1.92;1.65;;;;;;;21.33;44.21;100973.78;5252423;28;20031;-79
2023/06/17 08:25:51;;;;;;;0.73;0.73;;;;;;;21.51;43.47;100968.97;5259290;28;20043;-81
2023/06/17 08:28:42;;;;;;;1.95;1.02;;;;;;;21.56;43.60;100963.31;5251224;28;20039;-80
2023/06/17 08:31:33;;;;;;;0.88;0.70;;;;;;;21.56;42.62;100963.31;5249535;28;20669;-80
2023/06/17 08:34:24;;;;;;;0.50;0.50;;;;;;;21.65;41.78;100968.06;5271270;28;20086;-79
2023/06/17 08:37:15;;;;;;;1.65;0.90;;;;;;;21.70;41.02;100960.56;5270707;28;20043;-78
2023/06/17 08:40:06;;;;;;;0.30;0.30;;;;;;;21.72;41.29;100957.81;5237764;28;20522;-82
2023/06/17 08:43:03;;;;;;;0.88;0.88;;;;;;;21.78;40.18;100960.03;5273244;28;20406;-82
2023/06/17 08:45:56;;;;;;;0.57;0.57;;;;;;;21.83;40.19;100949.03;5267164;28;20036;-82
2023/06/17 08:48:48;;;;;;;0.50;0.50;;;;;;;21.87;39.73;100950.50;5252975;28;20036;-79
2023/06/17 08:51:39;;;;;;;2.00;1.17;;;;;;;22.04;40.50;100956.44;5259153;28;20031;-79
2023/06/17 08:54:32;;;;;;;0.30;0.30;;;;;;;22.04;40.15;100954.66;5253403;28;20028;-83
2023/06/17 08:57:24;;;;;;;0.55;0.55;;;;;;;22.12;39.12;100948.75;5252102;28;20040;-81
2023/06/17 09:00:15;;;;;;;1.35;1.23;;;;;;;22.11;39.28;100944.34;5254689;28;20412;-81
2023/06/17 09:03:08;;;;;;;0.52;0.52;;;;;;;22.18;38.21;100951.00;5235484;28;20032;-79
2023/06/17 09:05:59;;;;;;;0.90;0.82;;;;;;;22.25;38.58;100957.59;5234818;28;20035;-79
2023/06/17 09:08:51;;;;;;;5.18;2.05;;;;;;;22.35;38.75;100946.22;5243316;28;20108;-79
2023/06/17 09:11:50;;;;;;;0.68;0.68;;;;;;;22.46;38.52;100951.66;5242730;28;20173;-78
2023/06/17 09:14:44;;;;;;;1.35;1.25;;;;;;;22.51;37.93;100952.19;5271932;28;20028;-79
2023/06/17 09:17:37;;;;;;;0.38;0.38;;;;;;;22.50;36.98;100953.16;5268847;28;20096;-79
2023/06/17 09:20:32;;;;;;;0.65;0.60;;;;;;;22.46;36.31;100949.84;5251123;28;20085;-82
2023/06/17 09:23:23;;;;;;;1.48;0.90;;;;;;;22.52;37.44;100953.03;5266800;28;20138;-81
2023/06/17 09:26:14;;;;;;;0.70;0.68;;;;;;;22.62;35.65;100954.91;5249509;28;20047;-82
2023/06/17 09:29:07;;;;;;;0.68;0.68;;;;;;;22.60;35.92;100950.63;5283649;28;20047;-82
2023/06/17 09:32:01;;;;;;;0.40;0.40;;;;;;;22.67;35.06;100951.03;5284584;28;20040;-79
2023/06/17 09:34:52;;;;;;;0.60;0.60;;;;;;;22.77;34.73;100952.03;5260282;28;20028;-79
2023/06/17 09:37:44;;;;;;;0.63;0.63;;;;;;;22.97;34.90;100958.56;5257929;28;20093;-79
2023/06/17 09:40:35;;;;;;;0.28;0.28;;;;;;;22.84;35.71;100947.94;5255152;28;20028;-79
2023/06/17 09:43:26;;;;;;;0.40;0.40;;;;;;;22.90;34.76;100958.19;5256007;28;20456;-79
2023/06/17 09:46:35;;;;;;;0.57;0.57;;;;;;;22.90;34.90;100952.84;5256339;28;20031;-79
2023/06/17 09:49:26;;;;;;;0.65;0.65;;;;;;;22.84;34.94;100947.94;5256148;28;20063;-78
2023/06/17 09:52:18;;;;;;;0.40;0.40;;;;;;;22.92;35.16;100945.56;5270906;28;20032;-79
2023/06/17 09:55:09;;;;;;;0.50;0.50;;;;;;;23.15;34.55;100950.97;5253742;28;20020;-78
2023/06/17 09:58:02;;;;;;;0.22;0.22;;;;;;;23.18;35.13;100950.72;5269391;28;20067;-79
2023/06/17 10:00:53;;;;;;;0.40;0.40;;;;;;;23.06;34.97;100947.16;5244054;28;20039;-78
2023/06/17 10:03:45;;;;;;;1.35;0.85;;;;;;;23.17;35.50;100950.81;5253254;28;20051;-81
2023/06/17 10:06:38;;;;;;;1.95;1.23;;;;;;;23.27;35.73;100947.34;5270261;28;20377;-79
2023/06/17 10:09:29;;;;;;;0.65;0.65;;;;;;;23.35;36.13;100948.56;5250683;28;20110;-81
2023/06/17 10:12:22;;;;;;;0.30;0.30;;;;;;;23.43;34.44;100946.16;5272710;28;20028;-82
2023/06/17 10:15:17;;;;;;;2.00;0.60;;;;;;;23.46;34.52;100942.41;5220920;28;20035;-79
2023/06/17 10:18:08;;;;;;;0.65;0.65;;;;;;;23.45;34.14;100949.56;5253551;28;20296;-78
2023/06/17 10:21:02;;;;;;;0.38;0.38;;;;;;;23.55;34.90;100939.84;5240068;28;20124;-79
2023/06/17 10:23:54;;;;;;;1.35;0.38;;;;;;;23.58;34.43;100949.47;5251402;28;20585;-79
2023/06/17 10:26:44;;;;;;;0.75;0.55;;;;;;;23.67;35.45;100945.22;5235968;28;20032;-79
2023/06/17 10:29:35;;;;;;;1.08;0.85;;;;;;;23.86;34.01;100942.75;5235684;28;20089;-79
2023/06/17 10:32:26;;;;;;;0.80;0.70;;;;;;;23.92;33.84;100943.25;5252860;28;20419;-82
2023/06/17 10:35:19;;;;;;;1.13;1.00;;;;;;;23.93;33.88;100944.94;5240637;28;20458;-79
2023/06/17 10:38:27;;;;;;;0.32;0.32;;;;;;;24.08;34.12;100937.53;5240901;28;20028;-81
2023/06/17 10:41:18;;;;;;;0.60;0.60;;;;;;;24.04;33.69;100936.94;5224301;28;20117;-80
2023/06/17 10:44:39;;;;;;;0.20;0.20;;;;;;;24.12;33.33;100934.47;5227143;28;20031;-79
2023/06/17 10:47:30;;;;;;;2.13;0.85;;;;;;;24.22;33.91;100933.75;5245997;28;20037;-79
2023/06/17 10:50:21;;;;;;;0.40;0.40;;;;;;;24.24;33.83;100939.84;5221625;28;20033;-78
2023/06/17 10:53:16;;;;;;;1.17;0.63;;;;;;;24.26;34.47;100937.84;5256121;28;20695;-79
2023/06/17 10:56:07;;;;;;;1.25;0.60;;;;;;;24.33;33.80;100926.50;5227308;28;20105;-78
2023/06/17 10:58:57;;;;;;;1.15;0.82;;;;;;;24.56;33.02;100936.31;5241326;28;20119;-82
2023/06/17 11:01:48;;;;;;;0.50;0.50;;;;;;;24.50;33.53;100921.59;5238448;28;20689;-82
2023/06/17 11:04:42;;;;;;;0.73;0.73;;;;;;;24.59;34.52;100915.47;5243946;28;20046;-80
2023/06/17 11:07:33;;;;;;;1.13;0.93;;;;;;;24.67;33.17;100912.16;5255342;28;20058;-79
2023/06/17 11:10:24;;;;;;;0.30;0.30;;;;;;;24.81;33.21;100916.34;5262556;28;20040;-79
2023/06/17 11:13:20;;;;;;;0.38;0.38;;;;;;;25.00;32.98;100912.94;5246061;28;20107;-80
2023/06/17 11:16:11;;;;;;;0.60;0.60;;;;;;;24.96;32.95;100911.53;5241141;28;20040;-80
2023/06/17 11:19:02;;;;;;;0.30;0.30;;;;;;;24.94;33.25;100913.47;5242420;28;20032;-79
2023/06/17 11:22:01;;;;;;;0.50;0.50;;;;;;;25.00;33.10;100907.59;5241010;28;20063;-81
2023/06/17 11:24:52;;;;;;;0.52;0.52;;;;;;;25.08;32.67;100910.47;5240550;28;20107;-80
2023/06/17 11:27:44;;;;;;;0.40;0.40;;;;;;;25.18;32.91;100891.75;5257851;28;20076;-81
2023/06/17 11:30:36;;;;;;;1.00;0.60;;;;;;;25.18;33.90;100882.81;5252678;28;20028;-79
2023/06/17 11:33:28;;;;;;;0.60;0.57;;;;;;;25.25;34.86;100882.16;5258493;28;20028;-79
2023/06/17 11:36:20;;;;;;;0.70;0.70;;;;;;;25.52;32.05;100890.66;5255023;28;20048;-78
2023/06/17 11:39:11;;;;;;;0.38;0.38;;;;;;;25.45;31.78;100883.16;5257882;28;20033;-78
2023/06/17 11:42:03;;;;;;;0.30;0.30;;;;;;;25.60;31.66;100877.41;5258772;28;20035;-80
2023/06/17 11:44:54;;;;;;;0.95;0.95;;;;;;;25.75;31.50;100880.56;5256096;28;20668;-79
2023/06/17 11:47:44;;;;;;;0.75;0.73;;;;;;;25.74;32.62;100874.31;5252476;28;20147;-80
2023/06/17 11:50:38;;;;;;;0.50;0.50;;;;;;;25.70;32.43;100878.28;5251173;28;20564;-78
2023/06/17 11:53:31;;;;;;;1.30;1.20;;;;;;;25.82;31.61;100864.75;5238806;28;20039;-78
2023/06/17 11:56:22;;;;;;;0.70;0.70;;;;;;;26.03;31.43;100865.47;5240134;28;20048;-81
2023/06/17 11:59:14;;;;;;;1.33;1.17;;;;;;;26.16;30.64;100870.63;5251496;28;20039;-80
2023/06/17 12:02:06;;;;;;;0.32;0.32;;;;;;;26.25;30.46;100868.94;5252776;28;20151;-80
2023/06/17 12:05:03;;;;;;;0.40;0.40;;;;;;;26.54;30.79;100862.72;5236199;28;20025;-80
2023/06/17 12:07:58;;;;;;;1.95;0.75;;;;;;;26.51;31.73;100854.91;5240020;28;20344;-82
2023/06/17 12:10:49;;;;;;;0.45;0.45;;;;;;;26.51;31.02;100849.53;5257975;28;20044;-81
2023/06/17 12:13:42;;;;;;;1.13;1.02;;;;;;;26.59;31.39;100852.34;5228692;28;20047;-81
2023/06/17 12:16:35;;;;;;;0.38;0.38;;;;;;;26.71;30.92;100851.22;5234288;28;20033;-81
2023/06/17 12:19:26;;;;;;;0.38;0.38;;;;;;;26.78;31.16;100846.13;5254845;28;20058;-81
2023/06/17 12:22:17;;;;;;;0.15;0.15;;;;;;;27.11;29.84;100851.16;5253774;28;20110;-79
2023/06/17 12:25:08;;;;;;;0.93;0.38;;;;;;;27.19;27.04;100840.50;5252842;28;20033;-80
2023/06/17 12:27:59;;;;;;;0.95;0.93;;;;;;;27.47;26.76;100837.88;5255316;28;20658;-81
2023/06/17 12:30:50;;;;;;;0.73;0.73;;;;;;;27.56;26.57;100838.81;5230403;28;20140;-80
2023/06/17 12:33:41;;;;;;;0.40;0.40;;;;;;;27.68;25.84;100836.75;5240123;28;20135;-80
2023/06/17 12:36:32;;;;;;;0.55;0.55;;;;;;;27.63;25.78;100839.88;5224344;28;20032;-81
2023/06/17 12:39:23;;;;;;;0.35;0.35;;;;;;;27.73;26.76;100824.53;5231297;28;20032;-81
2023/06/17 12:42:14;;;;;;;0.75;0.73;;;;;;;27.84;25.91;100825.31;5229695;28;20094;-80
2023/06/17 12:45:06;;;;;;;0.63;0.63;;;;;;;28.02;26.54;100828.00;5219406;28;20112;-81
2023/06/17 12:47:56;;;;;;;0.55;0.55;;;;;;;28.03;24.49;100835.94;5233955;28;20122;-80
2023/06/17 12:50:47;;;;;;;1.75;1.05;;;;;;;28.17;26.14;100823.81;5233476;28;20036;-80
2023/06/17 12:53:38;;;;;;;0.30;0.30;;;;;;;28.33;24.35;100824.94;5219007;28;20289;-81
2023/06/17 12:56:29;;;;;;;0.63;0.63;;;;;;;28.33;22.66;100824.94;5226666;28;20039;-82
2023/06/17 12:59:21;;;;;;;1.40;0.80;;;;;;;28.13;22.47;100819.72;5244722;28;20040;-84
2023/06/17 13:02:12;;;;;;;0.20;0.20;;;;;;;28.42;23.89;100821.31;5229114;28;20851;-84
2023/06/17 13:05:03;;;;;;;0.63;0.63;;;;;;;28.58;22.55;100816.03;5246357;28;20031;-82
2023/06/17 13:07:54;;;;;;;0.20;0.20;;;;;;;28.51;22.93;100816.84;5235331;28;20990;-83
2023/06/17 13:10:45;;;;;;;0.17;0.17;;;;;;;28.43;23.84;100817.63;5246340;28;20052;-80
2023/06/17 13:13:37;;;;;;;0.70;0.40;;;;;;;28.71;25.09;100812.13;5227416;28;20767;-81
2023/06/17 13:16:29;;;;;;;0.35;0.35;;;;;;;28.78;24.52;100805.09;5239119;28;20127;-81
2023/06/17 13:19:20;;;;;;;6.75;1.65;;;;;;;28.81;23.27;100807.44;5234597;28;20531;-80